Aston Abbotts, United Kingdom
Current Conditions -  °F | °C
As of 5:20 PM on Thursday 27 Nov 2014 (Local Time) from EGTC Reporting Station
Few Clouds Few Clouds  
Wind Chill: 44°   Ceiling: Unl
Heat Index: 46°   Visibility: 6mi
Dew Point: 45°   Wind: 5mph
Humidity: 93%   Direction: 90°E
Pressure: 29.59"   Gusts: NA
Location:  51.85°N, 0.87°W
Report Text: EGTC 271720Z 09004KT 9999 FEW026 08/07 Q1002
Loading
Personal Weather Stations






























Interactive Weather Map New forecast layout! Learn more

10-Day Weather Forecast

Advertisements
Track Severe Weather on mobile